sensor_id;sensor_type;location;lat;lon;timestamp;P1;durP1;ratioP1;P2;durP2;ratioP2
77838;SDS011;67034;43.226;27.932;2024-02-28T00:01:26;7.13;;;3.88;;
77838;SDS011;67034;43.226;27.932;2024-02-28T00:03:51;14.15;;;6.40;;
77838;SDS011;67034;43.226;27.932;2024-02-28T00:06:17;11.50;;;4.15;;
77838;SDS011;67034;43.226;27.932;2024-02-28T00:08:43;15.38;;;4.93;;
77838;SDS011;67034;43.226;27.932;2024-02-28T00:11:09;18.35;;;9.05;;
77838;SDS011;67034;43.226;27.932;2024-02-28T00:13:35;13.40;;;8.65;;
77838;SDS011;67034;43.226;27.932;2024-02-28T00:16:02;18.80;;;9.10;;
77838;SDS011;67034;43.226;27.932;2024-02-28T00:18:28;16.88;;;9.18;;
77838;SDS011;67034;43.226;27.932;2024-02-28T00:20:56;8.45;;;3.78;;
77838;SDS011;67034;43.226;27.932;2024-02-28T00:23:22;6.22;;;4.18;;
77838;SDS011;67034;43.226;27.932;2024-02-28T00:25:47;9.95;;;4.30;;
77838;SDS011;67034;43.226;27.932;2024-02-28T00:28:13;6.15;;;3.40;;
77838;SDS011;67034;43.226;27.932;2024-02-28T00:30:39;4.90;;;3.75;;
77838;SDS011;67034;43.226;27.932;2024-02-28T00:33:06;8.77;;;4.15;;
77838;SDS011;67034;43.226;27.932;2024-02-28T00:35:32;14.27;;;4.90;;
77838;SDS011;67034;43.226;27.932;2024-02-28T00:38:01;9.27;;;4.03;;
77838;SDS011;67034;43.226;27.932;2024-02-28T00:40:27;6.75;;;3.53;;
77838;SDS011;67034;43.226;27.932;2024-02-28T00:42:53;7.90;;;3.90;;
77838;SDS011;67034;43.226;27.932;2024-02-28T00:45:19;5.85;;;3.78;;
77838;SDS011;67034;43.226;27.932;2024-02-28T00:47:45;10.52;;;3.90;;
77838;SDS011;67034;43.226;27.932;2024-02-28T00:50:12;9.60;;;3.75;;
77838;SDS011;67034;43.226;27.932;2024-02-28T00:52:38;7.15;;;3.75;;
77838;SDS011;67034;43.226;27.932;2024-02-28T00:55:04;7.28;;;3.38;;
77838;SDS011;67034;43.226;27.932;2024-02-28T00:57:30;9.77;;;4.25;;
77838;SDS011;67034;43.226;27.932;2024-02-28T00:59:56;7.75;;;3.97;;
77838;SDS011;67034;43.226;27.932;2024-02-28T01:02:22;7.22;;;4.18;;
77838;SDS011;67034;43.226;27.932;2024-02-28T01:04:48;9.20;;;4.63;;
77838;SDS011;67034;43.226;27.932;2024-02-28T01:07:15;7.38;;;4.07;;
77838;SDS011;67034;43.226;27.932;2024-02-28T01:09:41;13.07;;;5.20;;
77838;SDS011;67034;43.226;27.932;2024-02-28T01:12:07;13.65;;;4.28;;
77838;SDS011;67034;43.226;27.932;2024-02-28T01:14:33;6.30;;;4.13;;
77838;SDS011;67034;43.226;27.932;2024-02-28T01:16:58;8.77;;;4.32;;
77838;SDS011;67034;43.226;27.932;2024-02-28T01:19:24;8.70;;;4.53;;
77838;SDS011;67034;43.226;27.932;2024-02-28T01:21:50;10.30;;;4.90;;
77838;SDS011;67034;43.226;27.932;2024-02-28T01:24:17;9.32;;;3.78;;
77838;SDS011;67034;43.226;27.932;2024-02-28T01:26:43;9.60;;;4.35;;
77838;SDS011;67034;43.226;27.932;2024-02-28T01:29:09;9.32;;;4.60;;
77838;SDS011;67034;43.226;27.932;2024-02-28T01:31:35;7.72;;;4.00;;
77838;SDS011;67034;43.226;27.932;2024-02-28T01:34:00;8.43;;;4.45;;
77838;SDS011;67034;43.226;27.932;2024-02-28T01:36:26;8.60;;;3.72;;
77838;SDS011;67034;43.226;27.932;2024-02-28T01:38:52;7.75;;;3.85;;
77838;SDS011;67034;43.226;27.932;2024-02-28T01:41:19;10.63;;;4.28;;
77838;SDS011;67034;43.226;27.932;2024-02-28T01:43:45;6.18;;;4.22;;
77838;SDS011;67034;43.226;27.932;2024-02-28T01:46:14;6.25;;;3.75;;
77838;SDS011;67034;43.226;27.932;2024-02-28T01:48:48;6.65;;;3.45;;
77838;SDS011;67034;43.226;27.932;2024-02-28T01:51:13;6.65;;;3.65;;
77838;SDS011;67034;43.226;27.932;2024-02-28T01:53:39;10.85;;;3.80;;
77838;SDS011;67034;43.226;27.932;2024-02-28T01:56:05;12.40;;;4.43;;
77838;SDS011;67034;43.226;27.932;2024-02-28T01:58:34;8.77;;;4.22;;
77838;SDS011;67034;43.226;27.932;2024-02-28T02:01:00;10.90;;;4.40;;
77838;SDS011;67034;43.226;27.932;2024-02-28T02:03:28;8.05;;;3.80;;
77838;SDS011;67034;43.226;27.932;2024-02-28T02:05:54;9.15;;;4.43;;
77838;SDS011;67034;43.226;27.932;2024-02-28T02:08:20;8.68;;;3.45;;
77838;SDS011;67034;43.226;27.932;2024-02-28T02:10:46;13.00;;;4.15;;
77838;SDS011;67034;43.226;27.932;2024-02-28T02:13:12;7.60;;;4.22;;
77838;SDS011;67034;43.226;27.932;2024-02-28T02:15:39;10.73;;;4.10;;
77838;SDS011;67034;43.226;27.932;2024-02-28T02:18:06;9.23;;;3.85;;
77838;SDS011;67034;43.226;27.932;2024-02-28T02:20:32;9.73;;;4.00;;
77838;SDS011;67034;43.226;27.932;2024-02-28T02:23:01;9.10;;;3.88;;
77838;SDS011;67034;43.226;27.932;2024-02-28T02:25:27;7.60;;;3.60;;
77838;SDS011;67034;43.226;27.932;2024-02-28T02:27:53;5.88;;;3.53;;
77838;SDS011;67034;43.226;27.932;2024-02-28T02:30:18;7.05;;;3.97;;
77838;SDS011;67034;43.226;27.932;2024-02-28T02:32:44;7.65;;;3.60;;
77838;SDS011;67034;43.226;27.932;2024-02-28T02:35:10;7.30;;;3.88;;
77838;SDS011;67034;43.226;27.932;2024-02-28T02:37:35;8.65;;;3.38;;
77838;SDS011;67034;43.226;27.932;2024-02-28T02:40:03;7.55;;;3.47;;
77838;SDS011;67034;43.226;27.932;2024-02-28T02:42:29;9.02;;;3.53;;
77838;SDS011;67034;43.226;27.932;2024-02-28T02:44:55;6.90;;;3.50;;
77838;SDS011;67034;43.226;27.932;2024-02-28T02:47:20;9.50;;;3.25;;
77838;SDS011;67034;43.226;27.932;2024-02-28T02:52:11;5.60;;;3.22;;
77838;SDS011;67034;43.226;27.932;2024-02-28T02:54:37;7.95;;;3.15;;
77838;SDS011;67034;43.226;27.932;2024-02-28T02:57:05;8.57;;;4.07;;
77838;SDS011;67034;43.226;27.932;2024-02-28T02:59:30;7.00;;;3.50;;
77838;SDS011;67034;43.226;27.932;2024-02-28T03:04:21;8.73;;;3.38;;
77838;SDS011;67034;43.226;27.932;2024-02-28T03:09:13;6.30;;;2.90;;
77838;SDS011;67034;43.226;27.932;2024-02-28T03:14:05;7.63;;;3.13;;
77838;SDS011;67034;43.226;27.932;2024-02-28T03:16:31;7.82;;;3.75;;
77838;SDS011;67034;43.226;27.932;2024-02-28T03:21:22;7.18;;;2.97;;
77838;SDS011;67034;43.226;27.932;2024-02-28T03:26:13;6.47;;;3.45;;
77838;SDS011;67034;43.226;27.932;2024-02-28T03:31:06;9.75;;;2.90;;
77838;SDS011;67034;43.226;27.932;2024-02-28T03:33:32;5.85;;;3.58;;
77838;SDS011;67034;43.226;27.932;2024-02-28T03:35:58;7.10;;;3.90;;
77838;SDS011;67034;43.226;27.932;2024-02-28T03:38:24;11.05;;;3.63;;
77838;SDS011;67034;43.226;27.932;2024-02-28T03:40:50;7.38;;;3.70;;
77838;SDS011;67034;43.226;27.932;2024-02-28T03:45:41;5.07;;;2.85;;
77838;SDS011;67034;43.226;27.932;2024-02-28T03:50:34;5.47;;;3.15;;
77838;SDS011;67034;43.226;27.932;2024-02-28T03:53:00;9.45;;;3.58;;
77838;SDS011;67034;43.226;27.932;2024-02-28T03:57:51;7.90;;;3.75;;
77838;SDS011;67034;43.226;27.932;2024-02-28T04:02:43;7.63;;;3.58;;
77838;SDS011;67034;43.226;27.932;2024-02-28T04:05:10;6.03;;;3.10;;
77838;SDS011;67034;43.226;27.932;2024-02-28T04:07:37;5.88;;;3.25;;
77838;SDS011;67034;43.226;27.932;2024-02-28T04:10:03;5.85;;;3.15;;
77838;SDS011;67034;43.226;27.932;2024-02-28T04:12:30;5.43;;;3.33;;
77838;SDS011;67034;43.226;27.932;2024-02-28T04:14:56;6.72;;;4.15;;
77838;SDS011;67034;43.226;27.932;2024-02-28T04:17:21;5.50;;;3.22;;
77838;SDS011;67034;43.226;27.932;2024-02-28T04:22:14;5.82;;;3.22;;
77838;SDS011;67034;43.226;27.932;2024-02-28T04:24:40;7.75;;;4.28;;
77838;SDS011;67034;43.226;27.932;2024-02-28T04:27:05;8.10;;;3.53;;
77838;SDS011;67034;43.226;27.932;2024-02-28T04:31:56;7.63;;;3.00;;
77838;SDS011;67034;43.226;27.932;2024-02-28T04:34:22;6.30;;;3.40;;
77838;SDS011;67034;43.226;27.932;2024-02-28T04:36:48;8.02;;;4.13;;
77838;SDS011;67034;43.226;27.932;2024-02-28T04:39:15;6.00;;;3.28;;
77838;SDS011;67034;43.226;27.932;2024-02-28T04:41:41;7.20;;;4.07;;
77838;SDS011;67034;43.226;27.932;2024-02-28T04:44:06;5.93;;;3.15;;
77838;SDS011;67034;43.226;27.932;2024-02-28T04:48:59;7.47;;;3.65;;
77838;SDS011;67034;43.226;27.932;2024-02-28T04:51:25;7.20;;;3.58;;
77838;SDS011;67034;43.226;27.932;2024-02-28T04:53:50;6.25;;;3.53;;
77838;SDS011;67034;43.226;27.932;2024-02-28T04:58:43;7.25;;;3.90;;
77838;SDS011;67034;43.226;27.932;2024-02-28T05:01:09;5.80;;;3.72;;
77838;SDS011;67034;43.226;27.932;2024-02-28T05:03:34;9.48;;;3.50;;
77838;SDS011;67034;43.226;27.932;2024-02-28T05:08:26;12.48;;;4.07;;
77838;SDS011;67034;43.226;27.932;2024-02-28T05:10:53;10.85;;;4.38;;
77838;SDS011;67034;43.226;27.932;2024-02-28T05:13:20;7.90;;;4.10;;
77838;SDS011;67034;43.226;27.932;2024-02-28T05:15:48;10.25;;;3.63;;
77838;SDS011;67034;43.226;27.932;2024-02-28T05:18:13;9.13;;;4.03;;
77838;SDS011;67034;43.226;27.932;2024-02-28T05:20:39;9.60;;;4.22;;
77838;SDS011;67034;43.226;27.932;2024-02-28T05:23:05;8.40;;;3.30;;
77838;SDS011;67034;43.226;27.932;2024-02-28T05:27:56;9.98;;;4.07;;
77838;SDS011;67034;43.226;27.932;2024-02-28T05:32:49;11.38;;;3.33;;
77838;SDS011;67034;43.226;27.932;2024-02-28T05:35:15;6.60;;;3.85;;
77838;SDS011;67034;43.226;27.932;2024-02-28T05:37:41;10.95;;;4.43;;
77838;SDS011;67034;43.226;27.932;2024-02-28T05:40:07;8.40;;;3.63;;
77838;SDS011;67034;43.226;27.932;2024-02-28T05:42:34;12.57;;;4.57;;
77838;SDS011;67034;43.226;27.932;2024-02-28T05:45:00;11.30;;;5.05;;
77838;SDS011;67034;43.226;27.932;2024-02-28T05:49:53;10.70;;;4.50;;
77838;SDS011;67034;43.226;27.932;2024-02-28T05:52:21;11.57;;;5.03;;
77838;SDS011;67034;43.226;27.932;2024-02-28T05:57:13;13.27;;;6.00;;
77838;SDS011;67034;43.226;27.932;2024-02-28T06:02:04;18.75;;;9.80;;
77838;SDS011;67034;43.226;27.932;2024-02-28T06:06:57;10.82;;;5.57;;
77838;SDS011;67034;43.226;27.932;2024-02-28T06:09:23;14.75;;;6.53;;
77838;SDS011;67034;43.226;27.932;2024-02-28T06:11:48;18.20;;;8.35;;
77838;SDS011;67034;43.226;27.932;2024-02-28T06:14:14;16.98;;;9.70;;
77838;SDS011;67034;43.226;27.932;2024-02-28T06:19:05;19.35;;;9.75;;
77838;SDS011;67034;43.226;27.932;2024-02-28T06:21:33;13.30;;;8.45;;
77838;SDS011;67034;43.226;27.932;2024-02-28T06:23:58;12.57;;;6.05;;
77838;SDS011;67034;43.226;27.932;2024-02-28T06:28:56;8.42;;;5.18;;
77838;SDS011;67034;43.226;27.932;2024-02-28T06:31:26;15.07;;;5.33;;
77838;SDS011;67034;43.226;27.932;2024-02-28T06:33:54;12.98;;;4.80;;
77838;SDS011;67034;43.226;27.932;2024-02-28T06:36:20;12.68;;;4.47;;
77838;SDS011;67034;43.226;27.932;2024-02-28T06:38:47;9.57;;;3.47;;
77838;SDS011;67034;43.226;27.932;2024-02-28T06:41:13;15.77;;;4.22;;
77838;SDS011;67034;43.226;27.932;2024-02-28T06:43:39;10.10;;;4.47;;
77838;SDS011;67034;43.226;27.932;2024-02-28T06:46:05;6.55;;;3.78;;
77838;SDS011;67034;43.226;27.932;2024-02-28T06:48:30;17.70;;;4.60;;
77838;SDS011;67034;43.226;27.932;2024-02-28T06:53:23;15.50;;;7.25;;
77838;SDS011;67034;43.226;27.932;2024-02-28T06:58:15;12.82;;;5.13;;
77838;SDS011;67034;43.226;27.932;2024-02-28T07:03:07;7.53;;;3.88;;
77838;SDS011;67034;43.226;27.932;2024-02-28T07:05:39;11.58;;;4.18;;
77838;SDS011;67034;43.226;27.932;2024-02-28T07:08:05;16.38;;;5.70;;
77838;SDS011;67034;43.226;27.932;2024-02-28T07:10:31;13.90;;;5.00;;
77838;SDS011;67034;43.226;27.932;2024-02-28T07:12:58;10.40;;;3.97;;
77838;SDS011;67034;43.226;27.932;2024-02-28T07:15:24;11.38;;;3.55;;
77838;SDS011;67034;43.226;27.932;2024-02-28T07:17:50;6.43;;;3.50;;
77838;SDS011;67034;43.226;27.932;2024-02-28T07:20:16;10.43;;;4.13;;
77838;SDS011;67034;43.226;27.932;2024-02-28T07:22:42;15.43;;;4.05;;
77838;SDS011;67034;43.226;27.932;2024-02-28T07:25:08;13.45;;;3.75;;
77838;SDS011;67034;43.226;27.932;2024-02-28T07:27:34;16.70;;;5.35;;
77838;SDS011;67034;43.226;27.932;2024-02-28T07:30:02;21.08;;;5.30;;
77838;SDS011;67034;43.226;27.932;2024-02-28T07:32:31;18.03;;;5.33;;
77838;SDS011;67034;43.226;27.932;2024-02-28T07:35:00;12.25;;;5.68;;
77838;SDS011;67034;43.226;27.932;2024-02-28T07:37:25;11.00;;;3.90;;
77838;SDS011;67034;43.226;27.932;2024-02-28T07:39:51;8.95;;;4.20;;
77838;SDS011;67034;43.226;27.932;2024-02-28T07:42:17;16.10;;;5.10;;
77838;SDS011;67034;43.226;27.932;2024-02-28T07:44:43;11.00;;;4.25;;
77838;SDS011;67034;43.226;27.932;2024-02-28T07:47:10;14.90;;;5.37;;
77838;SDS011;67034;43.226;27.932;2024-02-28T07:49:36;15.85;;;6.30;;
77838;SDS011;67034;43.226;27.932;2024-02-28T07:52:04;10.13;;;5.57;;
77838;SDS011;67034;43.226;27.932;2024-02-28T07:54:30;11.23;;;5.55;;
77838;SDS011;67034;43.226;27.932;2024-02-28T07:56:56;17.00;;;4.32;;
77838;SDS011;67034;43.226;27.932;2024-02-28T07:59:22;16.00;;;6.55;;
77838;SDS011;67034;43.226;27.932;2024-02-28T08:01:48;16.75;;;6.18;;
77838;SDS011;67034;43.226;27.932;2024-02-28T08:04:15;14.00;;;6.03;;
77838;SDS011;67034;43.226;27.932;2024-02-28T08:06:41;13.57;;;4.43;;
77838;SDS011;67034;43.226;27.932;2024-02-28T08:09:07;12.77;;;5.30;;
77838;SDS011;67034;43.226;27.932;2024-02-28T08:11:33;18.65;;;6.38;;
77838;SDS011;67034;43.226;27.932;2024-02-28T08:13:59;15.30;;;5.35;;
77838;SDS011;67034;43.226;27.932;2024-02-28T08:16:25;12.45;;;6.72;;
77838;SDS011;67034;43.226;27.932;2024-02-28T08:18:50;12.32;;;4.93;;
77838;SDS011;67034;43.226;27.932;2024-02-28T08:21:18;12.10;;;4.20;;
77838;SDS011;67034;43.226;27.932;2024-02-28T08:23:43;12.68;;;3.72;;
77838;SDS011;67034;43.226;27.932;2024-02-28T08:26:10;13.20;;;3.97;;
77838;SDS011;67034;43.226;27.932;2024-02-28T08:28:36;15.77;;;5.05;;
77838;SDS011;67034;43.226;27.932;2024-02-28T08:31:02;16.85;;;5.50;;
77838;SDS011;67034;43.226;27.932;2024-02-28T08:33:28;15.80;;;5.35;;
77838;SDS011;67034;43.226;27.932;2024-02-28T08:35:53;22.40;;;6.43;;
77838;SDS011;67034;43.226;27.932;2024-02-28T08:38:20;10.93;;;4.35;;
77838;SDS011;67034;43.226;27.932;2024-02-28T08:40:46;17.69;;;4.49;;
77838;SDS011;67034;43.226;27.932;2024-02-28T08:43:12;16.05;;;5.80;;
77838;SDS011;67034;43.226;27.932;2024-02-28T08:45:38;9.10;;;4.25;;
77838;SDS011;67034;43.226;27.932;2024-02-28T08:48:03;17.77;;;4.75;;
77838;SDS011;67034;43.226;27.932;2024-02-28T08:50:30;12.93;;;4.38;;
77838;SDS011;67034;43.226;27.932;2024-02-28T08:52:55;12.13;;;4.90;;
77838;SDS011;67034;43.226;27.932;2024-02-28T08:55:22;21.30;;;6.45;;
77838;SDS011;67034;43.226;27.932;2024-02-28T08:57:48;9.95;;;4.18;;
77838;SDS011;67034;43.226;27.932;2024-02-28T09:00:14;8.77;;;4.10;;
77838;SDS011;67034;43.226;27.932;2024-02-28T09:02:40;16.88;;;5.20;;
77838;SDS011;67034;43.226;27.932;2024-02-28T09:05:07;8.38;;;4.10;;
77838;SDS011;67034;43.226;27.932;2024-02-28T09:07:34;17.83;;;4.50;;
77838;SDS011;67034;43.226;27.932;2024-02-28T09:10:01;14.93;;;5.18;;
77838;SDS011;67034;43.226;27.932;2024-02-28T09:12:29;26.42;;;6.87;;
77838;SDS011;67034;43.226;27.932;2024-02-28T09:14:55;13.23;;;4.67;;
77838;SDS011;67034;43.226;27.932;2024-02-28T09:17:22;12.50;;;4.43;;
77838;SDS011;67034;43.226;27.932;2024-02-28T09:19:48;8.82;;;4.30;;
77838;SDS011;67034;43.226;27.932;2024-02-28T09:22:14;10.10;;;4.85;;
77838;SDS011;67034;43.226;27.932;2024-02-28T09:24:40;13.63;;;5.63;;
77838;SDS011;67034;43.226;27.932;2024-02-28T09:27:06;17.05;;;5.82;;
77838;SDS011;67034;43.226;27.932;2024-02-28T09:29:33;11.73;;;4.80;;
77838;SDS011;67034;43.226;27.932;2024-02-28T09:31:59;10.13;;;3.88;;
77838;SDS011;67034;43.226;27.932;2024-02-28T09:34:25;12.77;;;4.72;;
77838;SDS011;67034;43.226;27.932;2024-02-28T09:36:50;16.40;;;5.95;;
77838;SDS011;67034;43.226;27.932;2024-02-28T09:39:16;9.07;;;3.80;;
77838;SDS011;67034;43.226;27.932;2024-02-28T09:41:42;12.27;;;4.72;;
77838;SDS011;67034;43.226;27.932;2024-02-28T09:44:08;12.48;;;5.10;;
77838;SDS011;67034;43.226;27.932;2024-02-28T09:46:35;10.80;;;4.65;;
77838;SDS011;67034;43.226;27.932;2024-02-28T09:49:01;10.52;;;4.40;;
77838;SDS011;67034;43.226;27.932;2024-02-28T09:51:29;40.17;;;8.38;;
77838;SDS011;67034;43.226;27.932;2024-02-28T09:53:55;19.52;;;5.47;;
77838;SDS011;67034;43.226;27.932;2024-02-28T09:56:22;15.80;;;5.35;;
77838;SDS011;67034;43.226;27.932;2024-02-28T09:58:49;14.80;;;4.55;;
77838;SDS011;67034;43.226;27.932;2024-02-28T10:01:15;15.05;;;5.00;;
77838;SDS011;67034;43.226;27.932;2024-02-28T10:03:43;13.27;;;5.05;;
77838;SDS011;67034;43.226;27.932;2024-02-28T10:06:10;17.10;;;5.33;;
77838;SDS011;67034;43.226;27.932;2024-02-28T10:08:36;11.80;;;4.97;;
77838;SDS011;67034;43.226;27.932;2024-02-28T10:11:02;15.27;;;5.47;;
77838;SDS011;67034;43.226;27.932;2024-02-28T10:13:28;18.02;;;4.60;;
77838;SDS011;67034;43.226;27.932;2024-02-28T10:15:54;9.65;;;4.60;;
77838;SDS011;67034;43.226;27.932;2024-02-28T10:18:19;14.05;;;5.95;;
77838;SDS011;67034;43.226;27.932;2024-02-28T10:20:54;43.19;;;8.40;;
77838;SDS011;67034;43.226;27.932;2024-02-28T10:23:20;16.13;;;5.55;;
77838;SDS011;67034;43.226;27.932;2024-02-28T10:25:46;12.60;;;5.50;;
77838;SDS011;67034;43.226;27.932;2024-02-28T10:28:12;17.17;;;4.63;;
77838;SDS011;67034;43.226;27.932;2024-02-28T10:30:40;14.05;;;5.97;;
77838;SDS011;67034;43.226;27.932;2024-02-28T10:33:09;12.95;;;3.95;;
77838;SDS011;67034;43.226;27.932;2024-02-28T10:35:36;13.35;;;4.80;;
77838;SDS011;67034;43.226;27.932;2024-02-28T10:38:04;12.40;;;4.47;;
77838;SDS011;67034;43.226;27.932;2024-02-28T10:40:30;25.50;;;6.43;;
77838;SDS011;67034;43.226;27.932;2024-02-28T10:42:55;12.88;;;4.40;;
77838;SDS011;67034;43.226;27.932;2024-02-28T10:45:23;11.70;;;4.40;;
77838;SDS011;67034;43.226;27.932;2024-02-28T10:47:50;16.85;;;5.60;;
77838;SDS011;67034;43.226;27.932;2024-02-28T10:50:17;18.50;;;5.40;;
77838;SDS011;67034;43.226;27.932;2024-02-28T10:52:43;12.80;;;4.35;;
77838;SDS011;67034;43.226;27.932;2024-02-28T10:55:13;22.90;;;5.63;;
77838;SDS011;67034;43.226;27.932;2024-02-28T10:57:39;15.77;;;5.00;;
77838;SDS011;67034;43.226;27.932;2024-02-28T11:00:07;14.38;;;4.97;;
77838;SDS011;67034;43.226;27.932;2024-02-28T11:02:33;15.82;;;5.80;;
77838;SDS011;67034;43.226;27.932;2024-02-28T11:05:00;11.55;;;3.92;;
77838;SDS011;67034;43.226;27.932;2024-02-28T11:07:27;16.58;;;5.75;;
77838;SDS011;67034;43.226;27.932;2024-02-28T11:09:53;13.43;;;5.06;;
77838;SDS011;67034;43.226;27.932;2024-02-28T11:12:29;15.02;;;5.13;;
77838;SDS011;67034;43.226;27.932;2024-02-28T11:14:56;15.30;;;5.38;;
77838;SDS011;67034;43.226;27.932;2024-02-28T11:17:25;13.35;;;5.65;;
77838;SDS011;67034;43.226;27.932;2024-02-28T11:19:52;22.33;;;6.22;;
77838;SDS011;67034;43.226;27.932;2024-02-28T11:22:18;11.65;;;4.18;;
77838;SDS011;67034;43.226;27.932;2024-02-28T11:24:46;14.40;;;6.00;;
77838;SDS011;67034;43.226;27.932;2024-02-28T11:27:12;13.60;;;5.13;;
77838;SDS011;67034;43.226;27.932;2024-02-28T11:29:42;13.60;;;5.35;;
77838;SDS011;67034;43.226;27.932;2024-02-28T11:32:11;10.55;;;4.60;;
77838;SDS011;67034;43.226;27.932;2024-02-28T11:34:38;14.70;;;5.47;;
77838;SDS011;67034;43.226;27.932;2024-02-28T11:37:08;12.60;;;6.18;;
77838;SDS011;67034;43.226;27.932;2024-02-28T11:39:34;13.82;;;5.72;;
77838;SDS011;67034;43.226;27.932;2024-02-28T11:42:11;13.90;;;5.10;;
77838;SDS011;67034;43.226;27.932;2024-02-28T11:44:40;16.60;;;6.13;;
77838;SDS011;67034;43.226;27.932;2024-02-28T11:47:09;18.95;;;6.00;;
77838;SDS011;67034;43.226;27.932;2024-02-28T11:49:37;14.02;;;4.70;;
77838;SDS011;67034;43.226;27.932;2024-02-28T11:52:04;10.52;;;4.45;;
77838;SDS011;67034;43.226;27.932;2024-02-28T11:54:29;13.15;;;4.90;;
77838;SDS011;67034;43.226;27.932;2024-02-28T11:56:55;12.52;;;6.78;;
77838;SDS011;67034;43.226;27.932;2024-02-28T11:59:21;12.88;;;6.20;;
77838;SDS011;67034;43.226;27.932;2024-02-28T12:01:47;12.07;;;5.25;;
77838;SDS011;67034;43.226;27.932;2024-02-28T12:04:14;23.87;;;7.23;;
77838;SDS011;67034;43.226;27.932;2024-02-28T12:06:39;17.48;;;4.65;;
77838;SDS011;67034;43.226;27.932;2024-02-28T12:09:06;15.75;;;5.53;;
77838;SDS011;67034;43.226;27.932;2024-02-28T12:11:34;14.43;;;4.78;;
77838;SDS011;67034;43.226;27.932;2024-02-28T12:14:02;14.45;;;6.63;;
77838;SDS011;67034;43.226;27.932;2024-02-28T12:16:29;18.60;;;6.07;;
77838;SDS011;67034;43.226;27.932;2024-02-28T12:18:55;12.18;;;5.53;;
77838;SDS011;67034;43.226;27.932;2024-02-28T12:21:22;12.57;;;5.15;;
77838;SDS011;67034;43.226;27.932;2024-02-28T12:23:49;15.73;;;6.55;;
77838;SDS011;67034;43.226;27.932;2024-02-28T12:26:16;17.17;;;5.60;;
77838;SDS011;67034;43.226;27.932;2024-02-28T12:28:42;14.35;;;6.38;;
77838;SDS011;67034;43.226;27.932;2024-02-28T12:31:08;12.40;;;5.60;;
77838;SDS011;67034;43.226;27.932;2024-02-28T12:33:36;13.57;;;5.25;;
77838;SDS011;67034;43.226;27.932;2024-02-28T12:36:02;13.63;;;5.50;;
77838;SDS011;67034;43.226;27.932;2024-02-28T12:38:29;14.02;;;4.97;;
77838;SDS011;67034;43.226;27.932;2024-02-28T12:40:56;11.20;;;5.25;;
77838;SDS011;67034;43.226;27.932;2024-02-28T12:43:21;10.57;;;5.03;;
77838;SDS011;67034;43.226;27.932;2024-02-28T12:45:47;15.70;;;5.20;;
77838;SDS011;67034;43.226;27.932;2024-02-28T12:48:13;17.13;;;5.53;;
77838;SDS011;67034;43.226;27.932;2024-02-28T12:50:39;14.07;;;6.00;;
77838;SDS011;67034;43.226;27.932;2024-02-28T12:53:04;12.52;;;7.47;;
77838;SDS011;67034;43.226;27.932;2024-02-28T12:55:32;10.85;;;5.68;;
77838;SDS011;67034;43.226;27.932;2024-02-28T12:58:05;13.39;;;5.23;;
77838;SDS011;67034;43.226;27.932;2024-02-28T13:00:31;18.23;;;6.22;;
77838;SDS011;67034;43.226;27.932;2024-02-28T13:02:57;11.88;;;5.70;;
77838;SDS011;67034;43.226;27.932;2024-02-28T13:05:23;15.40;;;6.70;;
77838;SDS011;67034;43.226;27.932;2024-02-28T13:07:48;18.67;;;7.38;;
77838;SDS011;67034;43.226;27.932;2024-02-28T13:10:14;13.87;;;6.27;;
77838;SDS011;67034;43.226;27.932;2024-02-28T13:12:41;20.20;;;8.98;;
77838;SDS011;67034;43.226;27.932;2024-02-28T13:15:07;15.60;;;6.50;;
77838;SDS011;67034;43.226;27.932;2024-02-28T13:17:33;16.05;;;6.07;;
77838;SDS011;67034;43.226;27.932;2024-02-28T13:19:59;13.40;;;6.50;;
77838;SDS011;67034;43.226;27.932;2024-02-28T13:22:25;16.75;;;6.47;;
77838;SDS011;67034;43.226;27.932;2024-02-28T13:24:51;22.70;;;6.65;;
77838;SDS011;67034;43.226;27.932;2024-02-28T13:27:17;16.48;;;7.03;;
77838;SDS011;67034;43.226;27.932;2024-02-28T13:29:44;11.82;;;5.85;;
77838;SDS011;67034;43.226;27.932;2024-02-28T13:32:10;18.98;;;8.23;;
77838;SDS011;67034;43.226;27.932;2024-02-28T13:34:35;13.10;;;6.20;;
77838;SDS011;67034;43.226;27.932;2024-02-28T13:37:01;20.17;;;6.60;;
77838;SDS011;67034;43.226;27.932;2024-02-28T13:39:27;20.70;;;8.32;;
77838;SDS011;67034;43.226;27.932;2024-02-28T13:41:53;19.10;;;7.23;;
77838;SDS011;67034;43.226;27.932;2024-02-28T13:44:19;23.55;;;10.68;;
77838;SDS011;67034;43.226;27.932;2024-02-28T13:46:46;19.35;;;9.07;;
77838;SDS011;67034;43.226;27.932;2024-02-28T13:49:12;19.38;;;7.47;;
77838;SDS011;67034;43.226;27.932;2024-02-28T13:51:39;16.00;;;8.48;;
77838;SDS011;67034;43.226;27.932;2024-02-28T13:54:05;12.15;;;6.28;;
77838;SDS011;67034;43.226;27.932;2024-02-28T13:56:31;17.55;;;7.50;;
77838;SDS011;67034;43.226;27.932;2024-02-28T13:58:57;18.55;;;7.68;;
77838;SDS011;67034;43.226;27.932;2024-02-28T14:01:23;19.60;;;8.48;;
77838;SDS011;67034;43.226;27.932;2024-02-28T14:03:50;14.07;;;6.38;;
77838;SDS011;67034;43.226;27.932;2024-02-28T14:06:15;20.25;;;7.63;;
77838;SDS011;67034;43.226;27.932;2024-02-28T14:08:50;15.39;;;7.54;;
77838;SDS011;67034;43.226;27.932;2024-02-28T14:11:17;12.10;;;6.57;;
77838;SDS011;67034;43.226;27.932;2024-02-28T14:13:43;22.58;;;8.40;;
77838;SDS011;67034;43.226;27.932;2024-02-28T14:16:13;17.20;;;5.68;;
77838;SDS011;67034;43.226;27.932;2024-02-28T14:18:39;13.18;;;7.00;;
77838;SDS011;67034;43.226;27.932;2024-02-28T14:21:06;18.42;;;6.97;;
77838;SDS011;67034;43.226;27.932;2024-02-28T14:23:32;14.13;;;8.50;;
77838;SDS011;67034;43.226;27.932;2024-02-28T14:25:58;23.17;;;10.10;;
77838;SDS011;67034;43.226;27.932;2024-02-28T14:28:24;18.85;;;7.90;;
77838;SDS011;67034;43.226;27.932;2024-02-28T14:30:50;16.67;;;8.15;;
77838;SDS011;67034;43.226;27.932;2024-02-28T14:33:15;16.58;;;8.13;;
77838;SDS011;67034;43.226;27.932;2024-02-28T14:35:41;19.40;;;8.07;;
77838;SDS011;67034;43.226;27.932;2024-02-28T14:38:08;24.33;;;8.43;;
77838;SDS011;67034;43.226;27.932;2024-02-28T14:40:34;15.35;;;7.13;;
77838;SDS011;67034;43.226;27.932;2024-02-28T14:43:00;25.57;;;8.33;;
77838;SDS011;67034;43.226;27.932;2024-02-28T14:45:26;23.77;;;10.17;;
77838;SDS011;67034;43.226;27.932;2024-02-28T14:47:53;24.23;;;9.60;;
77838;SDS011;67034;43.226;27.932;2024-02-28T14:50:19;22.05;;;9.95;;
77838;SDS011;67034;43.226;27.932;2024-02-28T14:52:51;28.00;;;9.60;;
77838;SDS011;67034;43.226;27.932;2024-02-28T14:55:19;27.23;;;11.95;;
77838;SDS011;67034;43.226;27.932;2024-02-28T14:57:44;20.95;;;10.30;;
77838;SDS011;67034;43.226;27.932;2024-02-28T15:00:10;18.25;;;8.00;;
77838;SDS011;67034;43.226;27.932;2024-02-28T15:02:39;19.73;;;10.07;;
77838;SDS011;67034;43.226;27.932;2024-02-28T15:05:06;22.75;;;8.77;;
77838;SDS011;67034;43.226;27.932;2024-02-28T15:07:32;19.50;;;8.35;;
77838;SDS011;67034;43.226;27.932;2024-02-28T15:09:59;25.05;;;10.88;;
77838;SDS011;67034;43.226;27.932;2024-02-28T15:12:27;25.02;;;11.85;;
77838;SDS011;67034;43.226;27.932;2024-02-28T15:14:52;28.02;;;13.50;;
77838;SDS011;67034;43.226;27.932;2024-02-28T15:17:19;24.30;;;9.85;;
77838;SDS011;67034;43.226;27.932;2024-02-28T15:19:45;26.48;;;12.43;;
77838;SDS011;67034;43.226;27.932;2024-02-28T15:22:11;18.48;;;9.00;;
77838;SDS011;67034;43.226;27.932;2024-02-28T15:24:37;26.60;;;12.30;;
77838;SDS011;67034;43.226;27.932;2024-02-28T15:27:04;23.90;;;13.60;;